createdAt,value
2022-11-21T00:00:56.048Z,0.70
2022-11-21T00:01:57.642Z,0.90
2022-11-21T00:03:03.816Z,0.80
2022-11-21T00:04:05.358Z,0.63
2022-11-21T00:05:07.349Z,0.60
2022-11-21T00:06:08.915Z,1.20
2022-11-21T00:07:10.641Z,0.60
2022-11-21T00:08:14.743Z,0.60
2022-11-21T00:09:16.367Z,0.73
2022-11-21T00:10:18.063Z,0.50
2022-11-21T00:11:19.634Z,0.90
2022-11-21T00:12:21.185Z,0.80
2022-11-21T00:13:22.706Z,0.70
2022-11-21T00:14:24.602Z,0.80
2022-11-21T00:15:27.061Z,0.77
2022-11-21T00:16:28.558Z,0.70
2022-11-21T00:17:30.129Z,0.60
2022-11-21T00:18:34.316Z,0.73
2022-11-21T00:19:35.823Z,0.80
2022-11-21T00:20:37.719Z,0.57
2022-11-21T00:21:39.261Z,0.50
2022-11-21T00:22:40.803Z,0.50
2022-11-21T00:23:43.721Z,0.87
2022-11-21T00:24:45.254Z,1.07
2022-11-21T00:25:46.783Z,0.60
2022-11-21T00:26:48.321Z,0.60
2022-11-21T00:27:49.890Z,0.60
2022-11-21T00:28:51.419Z,0.60
2022-11-21T00:29:52.925Z,0.80
2022-11-21T00:30:54.523Z,0.70
2022-11-21T00:31:56.098Z,0.57
2022-11-21T00:33:00.751Z,0.90
2022-11-21T00:34:02.453Z,0.50
2022-11-21T00:35:04.847Z,0.50
2022-11-21T00:36:10.274Z,0.40
2022-11-21T00:37:11.851Z,0.67
2022-11-21T00:38:13.374Z,0.70
2022-11-21T00:39:14.868Z,0.67
2022-11-21T00:40:17.407Z,0.60
2022-11-21T00:41:18.996Z,0.60
2022-11-21T00:42:20.571Z,0.50
2022-11-21T00:43:22.074Z,0.70
2022-11-21T00:44:23.633Z,0.87
2022-11-21T00:45:25.159Z,0.63
2022-11-21T00:46:26.694Z,0.60
2022-11-21T00:47:28.270Z,0.77
2022-11-21T00:48:31.107Z,0.50
2022-11-21T00:49:32.679Z,0.83
2022-11-21T00:50:34.279Z,0.70
2022-11-21T00:51:35.897Z,0.60
2022-11-21T00:52:37.447Z,0.77
2022-11-21T00:53:39.052Z,0.60
2022-11-21T00:54:40.606Z,0.60
2022-11-21T00:55:42.763Z,0.77
2022-11-21T00:56:44.324Z,0.70
2022-11-21T00:57:45.835Z,0.60
2022-11-21T00:58:47.381Z,0.50
2022-11-21T00:59:48.993Z,0.70
2022-11-21T01:00:50.755Z,0.60
2022-11-21T01:01:52.546Z,0.90
2022-11-21T01:02:54.078Z,0.60
2022-11-21T01:03:55.587Z,0.70
2022-11-21T01:04:57.117Z,0.90
2022-11-21T01:06:09.294Z,0.87
2022-11-21T01:07:14.263Z,0.87
2022-11-21T01:08:15.790Z,0.80
2022-11-21T01:09:17.333Z,1.00
2022-11-21T01:10:18.973Z,1.07
2022-11-21T01:11:21.218Z,1.10
2022-11-21T01:12:22.756Z,1.10
2022-11-21T01:13:24.335Z,1.00
2022-11-21T01:14:26.320Z,0.70
2022-11-21T01:15:28.186Z,0.97
2022-11-21T01:16:30.158Z,1.00
2022-11-21T01:17:33.318Z,1.20
2022-11-21T01:18:35.672Z,0.90
2022-11-21T01:19:37.255Z,1.10
2022-11-21T01:20:40.439Z,1.20
2022-11-21T01:21:42.018Z,1.00
2022-11-21T01:22:43.608Z,1.00
2022-11-21T01:23:45.330Z,0.80
2022-11-21T01:24:47.095Z,1.00
2022-11-21T01:25:48.654Z,0.90
2022-11-21T01:26:51.138Z,0.83
2022-11-21T01:27:52.802Z,1.30
2022-11-21T01:28:54.902Z,1.30
2022-11-21T01:29:56.453Z,1.30
2022-11-21T01:31:04.931Z,1.20
2022-11-21T01:32:06.480Z,1.17
2022-11-21T01:33:08.017Z,1.27
2022-11-21T01:34:09.515Z,1.00
2022-11-21T01:35:11.069Z,1.23
2022-11-21T01:36:15.658Z,1.27
2022-11-21T01:37:17.175Z,1.10
2022-11-21T01:38:18.712Z,1.50
2022-11-21T01:39:20.238Z,1.40
2022-11-21T01:40:21.822Z,1.10
2022-11-21T01:41:33.521Z,0.90
2022-11-21T01:42:53.736Z,1.37
2022-11-21T01:43:55.359Z,1.33
2022-11-21T01:44:56.886Z,1.30
2022-11-21T01:45:59.918Z,1.03
2022-11-21T01:47:01.482Z,1.20
2022-11-21T01:48:03.038Z,1.10
2022-11-21T01:49:32.166Z,1.37
2022-11-21T01:50:33.684Z,1.20
2022-11-21T01:51:49.249Z,0.80
2022-11-21T01:52:50.839Z,1.20
2022-11-21T01:54:36.900Z,1.00
2022-11-21T01:55:38.510Z,1.47
2022-11-21T01:56:51.146Z,1.00
2022-11-21T01:57:52.735Z,1.70
2022-11-21T01:58:59.209Z,1.00
2022-11-21T02:00:02.821Z,1.10
2022-11-21T02:01:04.489Z,1.17
2022-11-21T02:02:08.671Z,1.33
2022-11-21T02:03:15.017Z,1.10
2022-11-21T02:04:17.131Z,1.23
2022-11-21T02:05:25.271Z,1.37
2022-11-21T02:06:27.920Z,1.33
2022-11-21T02:07:34.719Z,1.37
2022-11-21T02:08:37.498Z,1.37
2022-11-21T02:09:43.573Z,1.47
2022-11-21T02:11:29.851Z,1.30
2022-11-21T02:12:40.706Z,1.60
2022-11-21T02:13:42.341Z,1.20
2022-11-21T02:14:44.534Z,1.20
2022-11-21T02:15:46.303Z,1.83
2022-11-21T02:16:47.943Z,1.60
2022-11-21T02:17:49.905Z,1.60
2022-11-21T02:18:51.911Z,1.70
2022-11-21T02:19:58.260Z,1.67
2022-11-21T02:21:38.855Z,1.50
2022-11-21T02:22:55.452Z,1.30
2022-11-21T02:24:29.017Z,1.90
2022-11-21T02:25:33.945Z,1.73
2022-11-21T02:26:35.775Z,2.30
2022-11-21T02:27:37.853Z,1.63
2022-11-21T02:28:39.577Z,2.47
2022-11-21T02:29:41.116Z,2.20
2022-11-21T02:30:43.602Z,1.40
2022-11-21T02:31:45.275Z,1.60
2022-11-21T02:32:47.259Z,1.80
2022-11-21T02:33:48.819Z,1.90
2022-11-21T02:34:50.724Z,2.10
2022-11-21T02:36:00.287Z,1.80
2022-11-21T02:37:02.469Z,1.67
2022-11-21T02:38:11.573Z,2.00
2022-11-21T02:39:37.528Z,2.20
2022-11-21T02:40:48.724Z,1.73
2022-11-21T02:41:57.657Z,1.90
2022-11-21T02:43:06.410Z,1.93
2022-11-21T02:44:24.602Z,2.47
2022-11-21T02:45:35.812Z,2.30
2022-11-21T02:46:47.327Z,1.97
2022-11-21T02:47:52.419Z,1.90
2022-11-21T02:48:54.883Z,2.47
2022-11-21T02:50:12.913Z,2.50
2022-11-21T02:51:14.447Z,2.00
2022-11-21T02:52:16.009Z,2.60
2022-11-21T02:53:19.451Z,2.67
2022-11-21T02:54:20.966Z,2.80
2022-11-21T02:55:23.646Z,2.20
2022-11-21T02:56:25.278Z,2.30
2022-11-21T02:57:27.319Z,2.50
2022-11-21T02:58:28.863Z,2.40
2022-11-21T02:59:30.425Z,2.93
2022-11-21T03:00:33.149Z,3.10
2022-11-21T03:01:34.688Z,2.70
2022-11-21T03:02:36.394Z,2.70
2022-11-21T03:03:37.975Z,3.30
2022-11-21T03:04:39.558Z,2.90
2022-11-21T03:05:41.745Z,2.40
2022-11-21T03:06:43.278Z,2.70
2022-11-21T03:07:45.746Z,2.73
2022-11-21T03:08:47.242Z,3.03
2022-11-21T03:09:48.839Z,3.17
2022-11-21T03:10:50.382Z,2.90
2022-11-21T03:11:51.903Z,3.17
2022-11-21T03:13:01.195Z,3.00
2022-11-21T03:14:03.166Z,2.87
2022-11-21T03:15:07.323Z,2.33
2022-11-21T03:16:08.852Z,3.10
2022-11-21T03:17:10.460Z,3.27
2022-11-21T03:18:12.018Z,3.80
2022-11-21T03:19:13.580Z,3.63
2022-11-21T03:20:15.382Z,4.27
2022-11-21T03:21:17.071Z,3.27
2022-11-21T03:22:18.969Z,3.53
2022-11-21T03:23:20.549Z,3.37
2022-11-21T03:24:22.117Z,3.50
2022-11-21T03:25:23.679Z,3.10
2022-11-21T03:26:25.262Z,3.10
2022-11-21T03:27:27.221Z,3.33
2022-11-21T03:28:28.811Z,3.93
2022-11-21T03:29:30.449Z,3.10
2022-11-21T03:30:32.784Z,2.73
2022-11-21T03:31:34.400Z,3.27
2022-11-21T03:32:35.960Z,3.10
2022-11-21T03:33:37.517Z,2.87
2022-11-21T03:34:39.055Z,3.03
2022-11-21T03:35:40.620Z,3.27
2022-11-21T03:36:42.198Z,3.50
2022-11-21T03:37:43.766Z,3.70
2022-11-21T03:38:45.303Z,3.57
2022-11-21T03:39:46.906Z,3.77
2022-11-21T03:40:48.542Z,3.13
2022-11-21T03:41:50.121Z,3.97
2022-11-21T03:42:51.695Z,3.40
2022-11-21T03:43:53.476Z,4.13
2022-11-21T03:44:55.009Z,4.10
2022-11-21T03:45:56.511Z,3.50
2022-11-21T03:46:58.053Z,3.03
2022-11-21T03:47:59.586Z,3.20
2022-11-21T03:49:01.663Z,3.40
2022-11-21T03:50:03.337Z,3.80
2022-11-21T03:51:04.875Z,3.53
2022-11-21T03:52:06.454Z,3.53
2022-11-21T03:53:08.050Z,4.07
2022-11-21T03:54:10.546Z,4.10
2022-11-21T03:55:12.051Z,3.80
2022-11-21T03:56:13.709Z,3.00
2022-11-21T03:57:15.268Z,3.03
2022-11-21T03:58:16.881Z,3.27
2022-11-21T03:59:18.410Z,3.53
2022-11-21T04:00:20.079Z,4.57
2022-11-21T04:01:22.215Z,3.57
2022-11-21T04:02:23.904Z,3.87
2022-11-21T04:03:25.473Z,3.80
2022-11-21T04:04:27.249Z,3.57
2022-11-21T04:05:28.971Z,3.63
2022-11-21T04:06:31.487Z,3.43
2022-11-21T04:07:33.080Z,3.73
2022-11-21T04:08:34.741Z,3.80
2022-11-21T04:09:36.320Z,3.97
2022-11-21T04:10:37.849Z,3.70
2022-11-21T04:11:39.407Z,3.27
2022-11-21T04:12:40.930Z,3.50
2022-11-21T04:13:42.498Z,3.37
2022-11-21T04:14:44.085Z,3.77
2022-11-21T04:15:46.703Z,2.80
2022-11-21T04:16:48.261Z,3.30
2022-11-21T04:17:49.843Z,3.27
2022-11-21T04:18:51.415Z,3.20
2022-11-21T04:19:52.984Z,3.20
2022-11-21T04:21:05.937Z,3.53
2022-11-21T04:22:07.502Z,3.10
2022-11-21T04:23:09.255Z,2.87
2022-11-21T04:24:10.974Z,2.50
2022-11-21T04:25:13.801Z,3.03
2022-11-21T04:26:15.391Z,3.63
2022-11-21T04:27:16.889Z,3.27
2022-11-21T04:28:18.816Z,3.07
2022-11-21T04:29:20.351Z,3.50
2022-11-21T04:30:21.893Z,3.27
2022-11-21T04:31:23.481Z,3.27
2022-11-21T04:32:25.024Z,3.50
2022-11-21T04:33:26.590Z,4.10
2022-11-21T04:34:28.639Z,3.57
2022-11-21T04:35:30.414Z,3.40
2022-11-21T04:36:32.065Z,2.77
2022-11-21T04:37:33.836Z,2.87
2022-11-21T04:38:35.652Z,3.57
2022-11-21T04:39:37.194Z,3.23
2022-11-21T04:40:38.912Z,3.57
2022-11-21T04:41:40.436Z,3.07
2022-11-21T04:42:45.957Z,2.73
2022-11-21T04:43:47.666Z,3.33
2022-11-21T04:44:49.192Z,3.10
2022-11-21T04:45:50.811Z,2.47
2022-11-21T04:46:53.209Z,3.03
2022-11-21T04:47:54.773Z,2.73
2022-11-21T04:48:56.380Z,2.80
2022-11-21T04:49:57.974Z,2.80
2022-11-21T04:50:59.916Z,3.10
2022-11-21T04:52:01.890Z,3.60
2022-11-21T04:53:03.613Z,3.20
2022-11-21T04:54:05.263Z,2.67
2022-11-21T04:55:07.176Z,2.23
2022-11-21T04:56:08.842Z,3.17
2022-11-21T04:57:10.378Z,2.90
2022-11-21T04:58:11.959Z,3.23
2022-11-21T04:59:13.544Z,3.10
2022-11-21T05:00:22.609Z,2.83
2022-11-21T05:01:25.678Z,2.70
2022-11-21T05:02:27.260Z,3.57
2022-11-21T05:03:28.786Z,2.80
2022-11-21T05:04:30.508Z,2.53
2022-11-21T05:05:32.807Z,3.00
2022-11-21T05:06:34.692Z,3.10
2022-11-21T05:07:36.580Z,3.20
2022-11-21T05:08:38.115Z,2.93
2022-11-21T05:09:39.662Z,2.47
2022-11-21T05:11:00.131Z,3.07
2022-11-21T05:12:20.304Z,3.43
2022-11-21T05:13:21.876Z,3.83
2022-11-21T05:14:26.546Z,3.50
2022-11-21T05:15:28.628Z,2.77
2022-11-21T05:16:30.163Z,2.83
2022-11-21T05:17:31.790Z,2.90
2022-11-21T05:18:33.363Z,2.60
2022-11-21T05:19:34.943Z,2.60
2022-11-21T05:20:37.065Z,2.63
2022-11-21T05:21:38.733Z,2.40
2022-11-21T05:22:40.360Z,3.20
2022-11-21T05:23:41.887Z,2.70
2022-11-21T05:24:43.391Z,3.03
2022-11-21T05:25:44.935Z,2.77
2022-11-21T05:26:46.578Z,2.50
2022-11-21T05:27:48.095Z,2.97
2022-11-21T05:28:49.626Z,2.23
2022-11-21T05:29:51.139Z,3.43
2022-11-21T05:30:52.648Z,3.20
2022-11-21T05:31:54.218Z,2.60
2022-11-21T05:32:55.768Z,2.70
2022-11-21T05:33:57.461Z,3.23
2022-11-21T05:34:58.996Z,2.37
2022-11-21T05:36:00.520Z,2.33
2022-11-21T05:37:02.104Z,2.73
2022-11-21T05:38:03.916Z,2.63
2022-11-21T05:39:05.743Z,2.20
2022-11-21T05:40:07.993Z,2.70
2022-11-21T05:41:09.570Z,2.50
2022-11-21T05:42:11.139Z,2.77
2022-11-21T05:43:31.534Z,2.57
2022-11-21T05:44:33.070Z,2.40
2022-11-21T05:45:34.627Z,2.53
2022-11-21T05:46:36.217Z,2.67
2022-11-21T05:47:37.822Z,3.00
2022-11-21T05:48:39.882Z,2.37
2022-11-21T05:49:41.414Z,2.70
2022-11-21T05:50:42.994Z,2.17
2022-11-21T05:51:44.610Z,2.67
2022-11-21T05:52:46.186Z,1.83
2022-11-21T05:53:48.116Z,2.03
2022-11-21T05:54:49.672Z,2.50
2022-11-21T05:55:51.218Z,1.77
2022-11-21T05:56:52.749Z,2.60
2022-11-21T05:57:54.251Z,2.00
2022-11-21T05:58:57.042Z,2.50
2022-11-21T05:59:58.568Z,2.77
2022-11-21T06:01:00.522Z,2.67
2022-11-21T06:02:20.337Z,2.80
2022-11-21T06:03:27.575Z,2.27
2022-11-21T06:04:29.579Z,2.43
2022-11-21T06:05:31.389Z,2.27
2022-11-21T06:06:33.194Z,2.80
2022-11-21T06:07:34.784Z,2.20
2022-11-21T06:08:39.452Z,2.57
2022-11-21T06:09:40.963Z,2.40
2022-11-21T06:10:42.505Z,2.70
2022-11-21T06:11:44.224Z,3.17
2022-11-21T06:12:45.761Z,2.30
2022-11-21T06:13:47.340Z,1.90
2022-11-21T06:14:48.907Z,2.63
2022-11-21T06:15:53.562Z,2.83
2022-11-21T06:16:55.067Z,2.43
2022-11-21T06:17:56.598Z,2.60
2022-11-21T06:18:58.956Z,3.13
2022-11-21T06:20:00.622Z,2.63
2022-11-21T06:21:08.230Z,2.13
2022-11-21T06:22:09.837Z,2.33
2022-11-21T06:23:12.575Z,2.67
2022-11-21T06:24:17.049Z,2.73
2022-11-21T06:25:22.411Z,2.73
2022-11-21T06:26:25.931Z,2.30
2022-11-21T06:27:29.298Z,2.00
2022-11-21T06:28:33.768Z,2.80
2022-11-21T06:29:35.329Z,3.17
2022-11-21T06:30:37.513Z,3.20
2022-11-21T06:31:39.060Z,3.13
2022-11-21T06:32:40.630Z,2.47
2022-11-21T06:33:43.142Z,2.23
2022-11-21T06:34:44.700Z,3.23
2022-11-21T06:35:46.294Z,2.63
2022-11-21T06:36:47.966Z,2.93
2022-11-21T06:37:53.561Z,3.00
2022-11-21T06:38:56.711Z,2.60
2022-11-21T06:39:58.820Z,2.70
2022-11-21T06:41:10.509Z,2.90
2022-11-21T06:42:12.021Z,1.97
2022-11-21T06:43:13.763Z,2.30
2022-11-21T06:44:15.258Z,2.67
2022-11-21T06:45:17.128Z,2.30
2022-11-21T06:46:19.481Z,2.87
2022-11-21T06:47:21.085Z,2.63
2022-11-21T06:48:22.766Z,2.40
2022-11-21T06:49:24.329Z,2.63
2022-11-21T06:50:25.948Z,2.77
2022-11-21T06:51:27.545Z,2.60
2022-11-21T06:52:29.108Z,2.70
2022-11-21T06:53:30.654Z,2.70
2022-11-21T06:54:32.357Z,2.90
2022-11-21T06:55:34.094Z,2.93
2022-11-21T06:56:35.582Z,2.47
2022-11-21T06:57:37.458Z,2.93
2022-11-21T06:58:39.020Z,2.73
2022-11-21T06:59:40.575Z,2.80
2022-11-21T07:00:42.281Z,2.70
2022-11-21T07:01:43.860Z,2.70
2022-11-21T07:02:45.533Z,2.23
2022-11-21T07:03:47.105Z,3.00
2022-11-21T07:04:48.695Z,2.93
2022-11-21T07:05:52.237Z,2.63
2022-11-21T07:06:53.781Z,2.53
2022-11-21T07:08:02.479Z,2.80
2022-11-21T07:09:32.112Z,2.80
2022-11-21T07:10:25.594Z,2.80
2022-11-21T07:11:27.210Z,2.60
2022-11-21T07:12:47.196Z,2.90
2022-11-21T07:13:48.780Z,2.40
2022-11-21T07:14:50.358Z,2.47
2022-11-21T07:15:54.381Z,2.00
2022-11-21T07:16:55.924Z,2.60
2022-11-21T07:17:58.830Z,2.20
2022-11-21T07:19:00.418Z,2.50
2022-11-21T07:20:02.016Z,2.93
2022-11-21T07:21:05.842Z,2.57
2022-11-21T07:22:08.591Z,2.80
2022-11-21T07:23:10.321Z,2.77
2022-11-21T07:24:12.266Z,2.67
2022-11-21T07:25:13.827Z,5.10
2022-11-21T07:26:15.398Z,4.23
2022-11-21T07:27:16.923Z,4.50
2022-11-21T07:28:18.475Z,3.47
2022-11-21T07:29:19.989Z,3.60
2022-11-21T07:30:21.511Z,4.33
2022-11-21T07:31:23.034Z,4.03
2022-11-21T07:32:26.131Z,4.27
2022-11-21T07:33:27.882Z,4.63
2022-11-21T07:34:29.433Z,3.20
2022-11-21T07:35:31.462Z,3.57
2022-11-21T07:36:32.984Z,3.50
2022-11-21T07:37:38.815Z,3.83
2022-11-21T07:38:41.656Z,3.10
2022-11-21T07:39:43.530Z,3.43
2022-11-21T07:40:46.130Z,3.07
2022-11-21T07:41:47.715Z,3.57
2022-11-21T07:42:49.239Z,3.53
2022-11-21T07:43:50.764Z,3.30
2022-11-21T07:44:52.259Z,2.80
2022-11-21T07:45:53.785Z,2.60
2022-11-21T07:46:56.104Z,3.40
2022-11-21T07:48:01.986Z,2.47
2022-11-21T07:49:03.973Z,3.07
2022-11-21T07:50:06.905Z,3.00
2022-11-21T07:51:08.483Z,2.87
2022-11-21T07:52:09.982Z,2.60
2022-11-21T07:53:12.019Z,2.60
2022-11-21T07:54:13.567Z,2.93
2022-11-21T07:55:15.176Z,2.87
2022-11-21T07:56:16.704Z,2.67
2022-11-21T07:57:18.432Z,3.03
2022-11-21T07:58:20.003Z,2.90
2022-11-21T07:59:21.577Z,2.67
2022-11-21T08:00:23.233Z,2.70
2022-11-21T08:01:24.823Z,2.80
2022-11-21T08:02:28.245Z,2.93
2022-11-21T08:03:29.787Z,3.10
2022-11-21T08:04:31.433Z,2.73
2022-11-21T08:05:37.678Z,2.57
2022-11-21T08:06:39.358Z,2.80
2022-11-21T08:07:40.949Z,2.90
2022-11-21T08:08:42.498Z,2.73
2022-11-21T08:09:44.055Z,2.80
2022-11-21T08:10:46.981Z,2.47
2022-11-21T08:11:48.560Z,2.40
2022-11-21T08:12:50.176Z,2.67
2022-11-21T08:13:51.771Z,3.00
2022-11-21T08:14:53.300Z,3.10
2022-11-21T08:15:54.807Z,2.73
2022-11-21T08:16:56.370Z,2.90
2022-11-21T08:17:57.886Z,2.47
2022-11-21T08:19:00.131Z,2.97
2022-11-21T08:20:02.625Z,2.10
2022-11-21T08:21:04.971Z,2.30
2022-11-21T08:22:06.519Z,2.40
2022-11-21T08:23:08.310Z,2.10
2022-11-21T08:24:13.611Z,2.30
2022-11-21T08:25:15.337Z,2.47
2022-11-21T08:26:16.950Z,2.10
2022-11-21T08:27:21.216Z,1.97
2022-11-21T08:28:22.776Z,2.23
2022-11-21T08:29:24.347Z,2.30
2022-11-21T08:30:26.634Z,2.70
2022-11-21T08:31:28.213Z,2.27
2022-11-21T08:32:29.720Z,2.70
2022-11-21T08:33:31.886Z,2.63
2022-11-21T08:34:33.564Z,2.93
2022-11-21T08:35:38.150Z,2.03
2022-11-21T08:36:39.715Z,2.77
2022-11-21T08:37:41.285Z,1.70
2022-11-21T08:38:42.792Z,2.57
2022-11-21T08:39:44.320Z,2.40
2022-11-21T08:40:45.926Z,2.50
2022-11-21T08:42:05.659Z,2.20
2022-11-21T08:43:09.554Z,2.23
2022-11-21T08:44:14.199Z,2.17
2022-11-21T08:45:15.948Z,2.33
2022-11-21T08:46:18.162Z,2.77
2022-11-21T08:47:20.703Z,2.40
2022-11-21T08:48:22.266Z,2.93
2022-11-21T08:49:24.613Z,2.20
2022-11-21T08:50:28.015Z,2.50
2022-11-21T08:51:29.718Z,2.30
2022-11-21T08:52:31.295Z,2.60
2022-11-21T08:53:32.799Z,2.43
2022-11-21T08:54:34.425Z,2.30
2022-11-21T08:55:36.011Z,2.63
2022-11-21T08:56:37.582Z,2.33
2022-11-21T08:57:40.424Z,1.93
2022-11-21T08:58:42.066Z,1.83
2022-11-21T08:59:43.575Z,1.93
2022-11-21T09:00:45.171Z,2.30
2022-11-21T09:01:46.850Z,2.40
2022-11-21T09:02:48.397Z,1.77
2022-11-21T09:03:50.154Z,2.20
2022-11-21T09:04:51.754Z,1.70
2022-11-21T09:05:55.762Z,2.47
2022-11-21T09:06:57.343Z,1.73
2022-11-21T09:07:59.612Z,2.27
2022-11-21T09:09:01.818Z,1.83
2022-11-21T09:10:04.009Z,2.03
2022-11-21T09:11:07.056Z,1.10
2022-11-21T09:12:08.567Z,1.50
2022-11-21T09:13:10.141Z,1.30
2022-11-21T09:14:49.975Z,2.00
2022-11-21T09:16:10.275Z,2.20
2022-11-21T09:17:32.194Z,1.87
2022-11-21T09:18:34.226Z,3.00
2022-11-21T09:19:35.790Z,1.67
2022-11-21T09:20:42.756Z,2.27
2022-11-21T09:21:44.510Z,2.17
2022-11-21T09:22:47.036Z,2.03
2022-11-21T09:23:48.739Z,1.80
2022-11-21T09:24:50.430Z,1.87
2022-11-21T09:25:52.315Z,1.97
2022-11-21T09:26:53.915Z,1.80
2022-11-21T09:28:00.050Z,2.10
2022-11-21T09:29:01.607Z,1.90
2022-11-21T09:30:03.496Z,1.80
2022-11-21T09:31:05.839Z,1.60
2022-11-21T09:32:07.454Z,2.03
2022-11-21T09:33:14.335Z,2.00
2022-11-21T09:34:15.909Z,1.73
2022-11-21T09:35:17.446Z,1.83
2022-11-21T09:36:19.029Z,2.00
2022-11-21T09:37:20.610Z,1.87
2022-11-21T09:38:24.331Z,1.60
2022-11-21T09:39:26.309Z,2.10
2022-11-21T09:40:30.655Z,2.00
2022-11-21T09:41:53.416Z,1.93
2022-11-21T09:43:19.755Z,1.97
2022-11-21T09:44:47.321Z,2.13
2022-11-21T09:45:51.876Z,2.00
2022-11-21T09:47:02.825Z,1.50
2022-11-21T09:48:12.616Z,1.87
2022-11-21T09:49:16.347Z,2.40
2022-11-21T09:50:36.530Z,1.97
2022-11-21T09:51:41.260Z,1.77
2022-11-21T09:53:09.855Z,2.40
2022-11-21T09:54:29.108Z,2.10
2022-11-21T09:55:49.657Z,2.23
2022-11-21T09:56:53.318Z,2.10
2022-11-21T09:57:56.923Z,2.27
2022-11-21T09:59:17.102Z,2.27
2022-11-21T10:00:24.098Z,2.40
2022-11-21T10:01:25.862Z,2.30
2022-11-21T10:02:27.410Z,2.00
2022-11-21T10:03:48.429Z,1.63
2022-11-21T10:04:51.763Z,1.70
2022-11-21T10:06:12.306Z,5.53
2022-11-21T10:07:30.347Z,1.80
2022-11-21T10:08:48.935Z,1.93
2022-11-21T10:10:05.783Z,1.73
2022-11-21T10:11:36.315Z,1.80
2022-11-21T10:12:47.496Z,1.50
2022-11-21T10:14:04.194Z,2.00
2022-11-21T10:15:58.273Z,1.63
2022-11-21T10:17:26.869Z,2.00
2022-11-21T10:19:06.054Z,1.83
2022-11-21T10:20:27.962Z,1.53
2022-11-21T10:21:58.209Z,1.40
2022-11-21T10:23:12.073Z,1.73
2022-11-21T10:24:24.010Z,1.83
2022-11-21T10:25:30.534Z,1.60
2022-11-21T10:26:40.291Z,1.80
2022-11-21T10:27:53.571Z,1.83
2022-11-21T10:29:11.023Z,1.73
2022-11-21T10:30:18.487Z,2.17
2022-11-21T10:31:21.690Z,1.90
2022-11-21T10:32:27.563Z,1.40
2022-11-21T10:33:34.569Z,1.40
2022-11-21T10:34:38.520Z,1.90
2022-11-21T10:35:50.204Z,1.90
2022-11-21T10:36:56.937Z,1.30
2022-11-21T10:38:01.463Z,1.90
2022-11-21T10:39:33.329Z,1.77
2022-11-21T10:40:45.799Z,1.80
2022-11-21T10:41:58.942Z,1.77
2022-11-21T10:43:26.219Z,2.17
2022-11-21T10:44:48.368Z,1.63
2022-11-21T10:45:50.817Z,1.30
2022-11-21T10:47:00.084Z,1.07
2022-11-21T10:48:05.311Z,1.20
2022-11-21T10:49:13.508Z,0.60
2022-11-21T10:50:36.407Z,0.60
2022-11-21T10:51:52.127Z,0.73
2022-11-21T10:53:36.802Z,0.67
2022-11-21T10:55:03.201Z,0.50
2022-11-21T10:56:14.685Z,0.80
2022-11-21T10:57:20.089Z,1.00
2022-11-21T10:58:35.659Z,1.27
2022-11-21T10:59:37.315Z,1.30
2022-11-21T11:00:57.177Z,1.10
2022-11-21T11:01:58.770Z,0.70
2022-11-21T11:03:05.088Z,0.90
2022-11-21T11:04:44.044Z,1.60
2022-11-21T11:05:41.562Z,0.80
2022-11-21T11:06:45.776Z,0.80
2022-11-21T11:08:07.427Z,0.80
2022-11-21T11:09:28.618Z,0.40
2022-11-21T11:10:32.020Z,0.50
2022-11-21T11:11:34.051Z,0.53
2022-11-21T11:12:54.106Z,0.30
2022-11-21T11:14:12.545Z,0.57
2022-11-21T11:15:25.765Z,0.57
2022-11-21T11:16:29.767Z,0.60
2022-11-21T11:17:34.001Z,0.60
2022-11-21T11:18:47.235Z,0.77
2022-11-21T11:20:07.814Z,0.50
2022-11-21T11:21:21.682Z,0.80
2022-11-21T11:22:30.875Z,0.60
2022-11-21T11:23:32.389Z,0.53
2022-11-21T11:24:34.055Z,0.50
2022-11-21T11:25:36.853Z,0.60
2022-11-21T11:26:48.549Z,0.60
2022-11-21T11:27:50.505Z,0.57
2022-11-21T11:28:52.417Z,0.60
2022-11-21T11:29:54.116Z,0.50
2022-11-21T11:30:56.352Z,0.50
2022-11-21T11:32:00.879Z,0.50
2022-11-21T11:33:02.446Z,0.40
2022-11-21T11:34:04.017Z,0.70
2022-11-21T11:35:14.819Z,0.60
2022-11-21T11:36:44.624Z,0.47
2022-11-21T11:37:59.513Z,1.20
2022-11-21T11:39:09.698Z,0.70
2022-11-21T11:40:21.842Z,0.70
2022-11-21T11:41:55.625Z,0.50
2022-11-21T11:43:24.286Z,0.53
2022-11-21T11:45:10.185Z,0.45
2022-11-21T11:46:53.762Z,0.60
2022-11-21T11:47:58.862Z,0.50
2022-11-21T11:49:20.236Z,0.80
2022-11-21T11:50:31.493Z,0.50
2022-11-21T11:51:45.442Z,0.80
2022-11-21T11:52:53.359Z,0.60
2022-11-21T11:54:01.524Z,0.50
2022-11-21T11:55:08.459Z,0.43
2022-11-21T11:56:18.135Z,0.77
2022-11-21T11:57:20.594Z,0.57
2022-11-21T11:58:31.836Z,0.60
2022-11-21T11:59:40.117Z,0.70
2022-11-21T12:00:48.046Z,0.43
2022-11-21T12:01:52.732Z,0.70
2022-11-21T12:03:12.767Z,0.67
2022-11-21T12:04:16.127Z,0.63
2022-11-21T12:05:26.374Z,0.57
2022-11-21T12:07:10.654Z,0.60
2022-11-21T12:08:41.470Z,0.60
2022-11-21T12:10:05.798Z,0.50
2022-11-21T12:11:31.075Z,0.90
2022-11-21T12:12:42.464Z,0.70
2022-11-21T12:13:44.817Z,0.60
2022-11-21T12:15:23.981Z,0.60
2022-11-21T12:16:27.093Z,0.67
2022-11-21T12:17:56.064Z,0.70
2022-11-21T12:19:06.623Z,0.50
2022-11-21T12:20:46.026Z,0.50
2022-11-21T12:21:48.075Z,0.80
2022-11-21T12:22:53.354Z,0.50
2022-11-21T12:23:58.992Z,0.60
2022-11-21T12:25:00.518Z,0.40
2022-11-21T12:26:01.992Z,0.50
2022-11-21T12:27:28.739Z,0.40
2022-11-21T12:28:57.330Z,0.60
2022-11-21T12:30:14.792Z,0.60
2022-11-21T12:31:25.599Z,0.50
2022-11-21T12:32:47.059Z,0.60
2022-11-21T12:34:04.088Z,0.53
2022-11-21T12:35:20.236Z,0.53
2022-11-21T12:36:44.223Z,0.40
2022-11-21T12:37:48.569Z,0.50
2022-11-21T12:38:59.157Z,0.70
2022-11-21T12:40:23.802Z,0.53
2022-11-21T12:41:47.161Z,0.67
2022-11-21T12:43:12.819Z,0.60
2022-11-21T12:44:29.420Z,0.77
2022-11-21T12:45:32.064Z,0.67
2022-11-21T12:46:43.403Z,0.70
2022-11-21T12:48:20.309Z,0.60
2022-11-21T12:49:54.568Z,0.50
2022-11-21T12:51:31.189Z,0.83
2022-11-21T12:53:08.299Z,0.70
2022-11-21T12:54:33.372Z,0.80
2022-11-21T12:55:35.670Z,0.70
2022-11-21T12:56:49.607Z,0.57
2022-11-21T12:58:12.913Z,0.53
2022-11-21T12:59:14.820Z,0.67
2022-11-21T13:01:02.148Z,0.50
2022-11-21T13:02:11.866Z,0.60
2022-11-21T13:03:29.578Z,0.70
2022-11-21T13:04:37.706Z,0.60
2022-11-21T13:05:46.980Z,0.90
2022-11-21T13:06:50.786Z,0.80
2022-11-21T13:08:24.028Z,0.67
2022-11-21T13:09:28.118Z,1.07
2022-11-21T13:10:31.279Z,0.60
2022-11-21T13:11:58.735Z,0.70
2022-11-21T13:13:34.838Z,0.93
2022-11-21T13:15:04.356Z,0.70
2022-11-21T13:16:11.798Z,0.67
2022-11-21T13:17:19.128Z,1.27
2022-11-21T13:18:25.449Z,0.90
2022-11-21T13:19:42.155Z,0.50
2022-11-21T13:20:51.879Z,0.70
2022-11-21T13:21:55.024Z,0.60
2022-11-21T13:23:01.477Z,0.50
2022-11-21T13:24:03.177Z,0.50
2022-11-21T13:25:39.549Z,0.50
2022-11-21T13:26:51.516Z,0.60
2022-11-21T13:27:54.743Z,0.40
2022-11-21T13:29:13.753Z,0.50
2022-11-21T13:30:15.473Z,0.50
2022-11-21T13:31:32.516Z,0.50
2022-11-21T13:32:41.613Z,0.50
2022-11-21T13:33:48.206Z,0.60
2022-11-21T13:34:49.871Z,0.70
2022-11-21T13:35:51.367Z,0.60
2022-11-21T13:36:52.948Z,0.43
2022-11-21T13:38:06.963Z,0.30
2022-11-21T13:39:27.574Z,0.50
2022-11-21T13:40:32.329Z,0.67
2022-11-21T13:41:55.677Z,0.40
2022-11-21T13:43:35.473Z,0.70
2022-11-21T13:44:40.679Z,0.60
2022-11-21T13:45:45.477Z,0.47
2022-11-21T13:47:25.800Z,0.70
2022-11-21T13:48:39.097Z,0.40
2022-11-21T13:49:43.519Z,0.43
2022-11-21T13:51:22.086Z,0.30
2022-11-21T13:52:45.499Z,0.37
2022-11-21T13:54:08.371Z,0.50
2022-11-21T13:55:45.474Z,0.30
2022-11-21T13:57:12.610Z,0.40
2022-11-21T13:58:29.858Z,0.33
2022-11-21T13:59:48.357Z,0.30
2022-11-21T14:01:23.281Z,0.40
2022-11-21T14:02:39.735Z,0.30
2022-11-21T14:03:53.192Z,0.37
2022-11-21T14:05:05.366Z,0.30
2022-11-21T14:06:36.433Z,0.43
2022-11-21T14:07:39.877Z,0.40
2022-11-21T14:08:41.669Z,0.47
2022-11-21T14:09:49.144Z,0.37
2022-11-21T14:10:52.670Z,0.33
2022-11-21T14:12:03.772Z,0.43
2022-11-21T14:13:05.387Z,0.47
2022-11-21T14:14:09.798Z,0.30
2022-11-21T14:15:21.764Z,0.40
2022-11-21T14:16:41.321Z,0.40
2022-11-21T14:17:44.862Z,0.50
2022-11-21T14:18:47.288Z,0.40
2022-11-21T14:19:49.714Z,0.70
2022-11-21T14:21:00.653Z,0.70
2022-11-21T14:22:02.235Z,0.63
2022-11-21T14:23:06.228Z,0.63
2022-11-21T14:24:17.923Z,0.60
2022-11-21T14:25:22.316Z,0.80
2022-11-21T14:26:25.548Z,0.60
2022-11-21T14:27:42.330Z,0.50
2022-11-21T14:28:47.906Z,0.63
2022-11-21T14:29:49.578Z,0.70
2022-11-21T14:30:58.252Z,0.67
2022-11-21T14:31:59.962Z,0.50
2022-11-21T14:33:47.325Z,5.13
2022-11-21T14:34:49.200Z,0.30
2022-11-21T14:36:03.183Z,0.57
2022-11-21T14:37:06.858Z,1.00
2022-11-21T14:38:08.485Z,0.90
2022-11-21T14:40:31.838Z,0.90
2022-11-21T14:41:35.804Z,0.73
2022-11-21T14:42:37.476Z,1.00
2022-11-21T14:43:39.073Z,1.00
2022-11-21T14:44:41.277Z,0.87
2022-11-21T14:45:49.471Z,0.80
2022-11-21T14:47:01.950Z,1.00
2022-11-21T14:48:12.896Z,1.50